createdAt,value
2022-08-09T00:01:23.286Z,100385.39
2022-08-09T00:04:03.586Z,100391.05
2022-08-09T00:06:39.527Z,100388.30
2022-08-09T00:09:13.396Z,100392.20
2022-08-09T00:12:03.075Z,100397.42
2022-08-09T00:14:38.182Z,100399.67
2022-08-09T00:17:07.384Z,100401.31
2022-08-09T00:19:36.364Z,100406.33
2022-08-09T00:22:04.664Z,100408.64
2022-08-09T00:24:33.131Z,100402.38
2022-08-09T00:27:02.484Z,100396.57
2022-08-09T00:30:09.902Z,100401.31
2022-08-09T00:32:25.216Z,100406.58
2022-08-09T00:34:56.577Z,100404.81
2022-08-09T00:37:27.078Z,100405.06
2022-08-09T00:40:13.128Z,100406.56
2022-08-09T00:44:14.815Z,100411.25
2022-08-09T00:45:35.210Z,100414.88
2022-08-09T00:48:05.570Z,100418.45
2022-08-09T00:50:34.241Z,100412.84
2022-08-09T00:53:08.814Z,100412.13
2022-08-09T00:56:05.098Z,100404.14
2022-08-09T00:58:31.537Z,100402.29
2022-08-09T01:00:59.895Z,100404.29
2022-08-09T01:03:30.811Z,100405.58
2022-08-09T01:06:22.171Z,100413.11
2022-08-09T01:09:35.796Z,100419.59
2022-08-09T01:12:26.579Z,100421.35
2022-08-09T01:15:16.719Z,100425.74
2022-08-09T01:18:03.957Z,100429.24
2022-08-09T01:20:49.825Z,100424.13
2022-08-09T01:24:03.677Z,100421.95
2022-08-09T01:26:55.924Z,100422.55
2022-08-09T01:29:41.283Z,100426.78
2022-08-09T01:32:29.899Z,100428.44
2022-08-09T01:35:29.052Z,100428.89
2022-08-09T01:38:15.016Z,100427.20
2022-08-09T01:41:04.835Z,100430.08
2022-08-09T01:43:41.935Z,100427.76
2022-08-09T01:46:26.889Z,100432.30
2022-08-09T01:49:09.506Z,100429.33
2022-08-09T01:51:54.411Z,100427.23
2022-08-09T01:54:28.069Z,100422.34
2022-08-09T01:57:08.226Z,100420.95
2022-08-09T01:59:40.973Z,100423.29
2022-08-09T02:02:31.013Z,100421.73
2022-08-09T02:05:15.409Z,100415.48
2022-08-09T02:08:40.276Z,100413.50
2022-08-09T02:10:51.138Z,100416.23
2022-08-09T02:13:22.218Z,100416.84
2022-08-09T02:15:56.342Z,100416.09
2022-08-09T02:18:31.099Z,100419.99
2022-08-09T02:21:06.011Z,100426.89
2022-08-09T02:23:43.184Z,100428.95
2022-08-09T02:26:27.250Z,100429.05
2022-08-09T02:29:02.304Z,100425.25
2022-08-09T02:31:36.778Z,100425.30
2022-08-09T02:34:13.714Z,100424.64
2022-08-09T02:36:57.228Z,100421.98
2022-08-09T02:39:33.700Z,100418.43
2022-08-09T02:42:17.325Z,100422.48
2022-08-09T02:44:53.112Z,100425.20
2022-08-09T02:47:23.668Z,100428.83
2022-08-09T02:49:55.408Z,100423.84
2022-08-09T02:52:45.076Z,100426.28
2022-08-09T02:55:20.562Z,100428.53
2022-08-09T02:58:00.287Z,100425.23
2022-08-09T03:00:47.858Z,100420.23
2022-08-09T03:04:12.413Z,100424.81
2022-08-09T03:06:18.679Z,100428.85
2022-08-09T03:08:52.408Z,100424.67
2022-08-09T03:11:29.787Z,100426.96
2022-08-09T03:14:13.024Z,100430.93
2022-08-09T03:16:47.739Z,100437.04
2022-08-09T03:19:58.370Z,100433.88
2022-08-09T03:22:12.362Z,100431.81
2022-08-09T03:25:06.402Z,100431.20
2022-08-09T03:27:50.677Z,100425.63
2022-08-09T03:30:29.946Z,100425.80
2022-08-09T03:33:17.877Z,100427.35
2022-08-09T03:36:13.347Z,100425.20
2022-08-09T03:38:41.898Z,100426.89
2022-08-09T03:41:16.397Z,100428.86
2022-08-09T03:43:51.863Z,100427.99
2022-08-09T03:46:36.228Z,100427.42
2022-08-09T03:49:07.901Z,100424.35
2022-08-09T03:51:58.143Z,100424.58
2022-08-09T03:54:49.222Z,100421.76
2022-08-09T03:57:21.100Z,100417.61
2022-08-09T03:59:55.074Z,100417.07
2022-08-09T04:02:27.908Z,100413.19
2022-08-09T04:05:00.781Z,100416.34
2022-08-09T04:07:33.851Z,100421.28
2022-08-09T04:10:20.791Z,100423.13
2022-08-09T04:12:57.942Z,100420.71
2022-08-09T04:15:52.487Z,100420.67
2022-08-09T04:18:19.500Z,100418.64
2022-08-09T04:20:51.370Z,100416.07
2022-08-09T04:23:23.294Z,100422.08
2022-08-09T04:25:55.011Z,100419.70
2022-08-09T04:28:33.140Z,100421.02
2022-08-09T04:31:05.916Z,100422.34
2022-08-09T04:33:52.952Z,100421.48
2022-08-09T04:36:28.767Z,100420.75
2022-08-09T04:38:59.876Z,100421.11
2022-08-09T04:41:32.158Z,100418.62
2022-08-09T04:44:06.536Z,100415.86
2022-08-09T04:46:58.604Z,100417.30
2022-08-09T04:49:52.978Z,100423.16
2022-08-09T04:52:26.869Z,100419.15
2022-08-09T04:54:57.439Z,100422.56
2022-08-09T04:57:26.980Z,100428.98
2022-08-09T05:00:16.630Z,100433.01
2022-08-09T05:02:48.517Z,100426.98
2022-08-09T05:05:32.319Z,100424.36
2022-08-09T05:08:13.976Z,100426.35
2022-08-09T05:10:44.627Z,100430.80
2022-08-09T05:13:14.430Z,100432.29
2022-08-09T05:15:48.228Z,100432.80
2022-08-09T05:18:37.772Z,100437.60
2022-08-09T05:21:22.718Z,100439.01
2022-08-09T05:23:59.621Z,100438.98
2022-08-09T05:26:36.524Z,100440.57
2022-08-09T05:29:05.411Z,100441.31
2022-08-09T05:31:44.125Z,100442.45
2022-08-09T05:34:16.455Z,100443.34
2022-08-09T05:36:47.076Z,100445.73
2022-08-09T05:39:29.410Z,100446.58
2022-08-09T05:42:01.429Z,100446.38
2022-08-09T05:44:32.803Z,100448.27
2022-08-09T05:47:04.846Z,100453.09
2022-08-09T05:50:24.349Z,100452.98
2022-08-09T05:52:24.827Z,100454.73
2022-08-09T05:54:53.053Z,100455.27
2022-08-09T05:57:25.045Z,100451.67
2022-08-09T06:00:13.523Z,100454.88
2022-08-09T06:02:41.908Z,100456.55
2022-08-09T06:05:14.673Z,100457.76
2022-08-09T06:07:44.408Z,100458.10
2022-08-09T06:10:38.432Z,100455.33
2022-08-09T06:13:18.608Z,100458.10
2022-08-09T06:15:51.403Z,100458.95
2022-08-09T06:18:24.859Z,100460.95
2022-08-09T06:20:56.972Z,100464.31
2022-08-09T06:23:58.597Z,100462.55
2022-08-09T06:26:20.838Z,100464.83
2022-08-09T06:29:00.053Z,100464.30
2022-08-09T06:31:39.975Z,100463.30
2022-08-09T06:34:31.306Z,100461.93
2022-08-09T06:37:10.076Z,100460.27
2022-08-09T06:39:57.801Z,100459.98
2022-08-09T06:42:28.487Z,100461.34
2022-08-09T06:45:00.108Z,100468.42
2022-08-09T06:47:30.148Z,100468.46
2022-08-09T06:50:13.977Z,100468.84
2022-08-09T06:52:48.518Z,100467.02
2022-08-09T06:55:22.950Z,100463.98
2022-08-09T06:58:02.993Z,100462.98
2022-08-09T07:00:52.251Z,100466.55
2022-08-09T07:03:27.979Z,100467.67
2022-08-09T07:06:03.756Z,100469.24
2022-08-09T07:08:37.135Z,100469.79
2022-08-09T07:11:08.535Z,100476.14
2022-08-09T07:13:45.534Z,100474.73
2022-08-09T07:16:41.909Z,100473.46
2022-08-09T07:19:22.847Z,100470.25
2022-08-09T07:21:57.913Z,100470.38
2022-08-09T07:24:31.876Z,100466.05
2022-08-09T07:27:01.755Z,100466.77
2022-08-09T07:29:30.748Z,100469.68
2022-08-09T07:32:07.444Z,100467.77
2022-08-09T07:34:38.488Z,100463.54
2022-08-09T07:37:10.949Z,100458.42
2022-08-09T07:39:44.303Z,100454.42
2022-08-09T07:42:15.225Z,100458.23
2022-08-09T07:44:51.750Z,100460.22
2022-08-09T07:47:23.104Z,100457.73
2022-08-09T07:50:05.208Z,100459.88
2022-08-09T07:52:38.093Z,100457.74
2022-08-09T07:55:08.934Z,100461.39
2022-08-09T07:57:46.498Z,100461.88
2022-08-09T08:00:20.840Z,100460.85
2022-08-09T08:03:04.892Z,100462.42
2022-08-09T08:05:54.051Z,100464.30
2022-08-09T08:09:02.747Z,100466.30
2022-08-09T08:12:10.852Z,100470.45
2022-08-09T08:13:57.668Z,100470.38
2022-08-09T08:16:29.983Z,100466.89
2022-08-09T08:19:03.284Z,100470.65
2022-08-09T08:21:32.947Z,100473.04
2022-08-09T08:24:12.072Z,100470.44
2022-08-09T08:26:55.711Z,100473.90
2022-08-09T08:29:27.690Z,100478.06
2022-08-09T08:32:04.478Z,100474.55
2022-08-09T08:34:36.294Z,100473.62
2022-08-09T08:37:05.467Z,100475.63
2022-08-09T08:39:43.643Z,100477.57
2022-08-09T08:42:13.359Z,100475.36
2022-08-09T08:44:43.459Z,100477.31
2022-08-09T08:47:15.200Z,100479.15
2022-08-09T08:49:47.855Z,100473.72
2022-08-09T08:52:52.634Z,100471.38
2022-08-09T08:55:08.816Z,100474.06
2022-08-09T08:57:37.498Z,100472.81
2022-08-09T09:00:21.011Z,100467.26
2022-08-09T09:03:08.744Z,100472.38
2022-08-09T09:05:58.305Z,100473.02
2022-08-09T09:08:40.700Z,100473.62
2022-08-09T09:11:17.474Z,100472.65
2022-08-09T09:13:57.528Z,100476.08
2022-08-09T09:16:34.775Z,100474.20
2022-08-09T09:21:58.083Z,100471.30
2022-08-09T09:24:31.262Z,100469.58
2022-08-09T09:27:02.416Z,100469.13
2022-08-09T09:30:08.486Z,100464.00
2022-08-09T09:32:34.271Z,100465.10
2022-08-09T09:35:09.297Z,100463.91
2022-08-09T09:37:40.560Z,100458.05
2022-08-09T09:40:11.834Z,100453.62
2022-08-09T09:42:46.032Z,100454.16
2022-08-09T09:45:26.466Z,100457.30
2022-08-09T09:47:58.687Z,100458.66
2022-08-09T09:50:50.620Z,100454.85
2022-08-09T09:53:34.349Z,100452.91
2022-08-09T09:56:30.817Z,100451.02
2022-08-09T09:59:00.924Z,100451.81
2022-08-09T10:01:36.897Z,100446.25
2022-08-09T10:04:15.386Z,100446.86
2022-08-09T10:06:52.159Z,100442.30
2022-08-09T10:09:24.130Z,100442.41
2022-08-09T10:12:14.747Z,100434.45
2022-08-09T10:14:51.937Z,100430.30
2022-08-09T10:17:55.150Z,100431.64
2022-08-09T10:20:27.152Z,100430.05
2022-08-09T10:23:20.308Z,100431.50
2022-08-09T10:26:07.754Z,100430.12
2022-08-09T10:28:41.688Z,100431.48
2022-08-09T10:34:08.796Z,100413.13
2022-08-09T10:36:54.337Z,100412.05
2022-08-09T10:39:28.313Z,100415.74
2022-08-09T10:41:57.130Z,100415.54
2022-08-09T10:44:30.495Z,100410.96
2022-08-09T10:48:13.307Z,100415.27
2022-08-09T10:50:17.531Z,100410.16
2022-08-09T10:53:12.434Z,100406.67
2022-08-09T10:55:58.636Z,100404.71
2022-08-09T10:58:34.649Z,100399.13
2022-08-09T11:03:06.372Z,100399.02
2022-08-09T11:04:27.797Z,100397.75
2022-08-09T11:07:00.326Z,100397.33
2022-08-09T11:09:38.097Z,100396.14
2022-08-09T11:12:29.676Z,100397.19
2022-08-09T11:15:02.887Z,100397.36
2022-08-09T11:17:31.130Z,100393.95
2022-08-09T11:20:20.393Z,100384.79
2022-08-09T11:22:56.885Z,100388.95
2022-08-09T11:25:36.211Z,100383.27
2022-08-09T11:28:30.607Z,100382.04
2022-08-09T11:31:36.622Z,100378.84
2022-08-09T11:34:10.858Z,100378.63
2022-08-09T11:36:44.319Z,100379.86
2022-08-09T11:39:12.536Z,100376.93
2022-08-09T11:41:45.281Z,100372.00
2022-08-09T11:44:14.172Z,100374.72
2022-08-09T11:46:57.407Z,100374.30
2022-08-09T11:50:56.168Z,100367.39
2022-08-09T11:53:21.455Z,100361.77
2022-08-09T11:56:02.868Z,100359.52
2022-08-09T11:58:33.057Z,100351.39
2022-08-09T12:01:09.044Z,100354.58
2022-08-09T12:03:57.385Z,100356.29
2022-08-09T12:06:32.018Z,100357.33
2022-08-09T12:09:04.388Z,100353.00
2022-08-09T12:11:44.482Z,100353.30
2022-08-09T12:14:36.446Z,100349.33
2022-08-09T12:17:27.849Z,100354.73
2022-08-09T12:19:59.489Z,100347.73
2022-08-09T12:22:29.073Z,100347.31
2022-08-09T12:25:36.264Z,100344.78
2022-08-09T12:28:59.851Z,100343.38
2022-08-09T12:31:58.292Z,100346.44
2022-08-09T12:34:34.272Z,100346.21
2022-08-09T12:37:21.942Z,100347.77
2022-08-09T12:40:08.152Z,100343.79
2022-08-09T12:42:37.517Z,100338.59
2022-08-09T12:45:33.796Z,100342.66
2022-08-09T12:47:58.140Z,100336.99
2022-08-09T12:50:26.519Z,100340.86
2022-08-09T12:53:09.572Z,100339.52
2022-08-09T12:56:15.858Z,100331.63
2022-08-09T12:58:33.915Z,100329.71
2022-08-09T13:01:04.749Z,100329.84
2022-08-09T13:03:58.337Z,100330.58
2022-08-09T13:06:25.439Z,100323.45
2022-08-09T13:09:07.604Z,100325.30
2022-08-09T13:11:45.334Z,100325.90
2022-08-09T13:14:41.301Z,100325.19
2022-08-09T13:17:25.736Z,100319.83
2022-08-09T13:20:16.214Z,100315.10
2022-08-09T13:23:05.764Z,100312.42
2022-08-09T13:25:54.743Z,100310.19
2022-08-09T13:28:34.684Z,100301.11
2022-08-09T13:32:17.770Z,100297.38
2022-08-09T13:33:57.735Z,100297.22
2022-08-09T13:36:41.364Z,100299.95
2022-08-09T13:39:34.385Z,100306.75
2022-08-09T13:42:14.354Z,100310.02
2022-08-09T13:44:48.669Z,100317.56
2022-08-09T13:47:33.879Z,100313.08
2022-08-09T13:50:18.252Z,100315.91
2022-08-09T13:52:58.579Z,100324.70
2022-08-09T13:55:29.170Z,100321.81
2022-08-09T13:57:59.523Z,100321.92
2022-08-09T14:00:30.361Z,100322.14
2022-08-09T14:03:04.171Z,100330.70
2022-08-09T14:05:59.817Z,100334.75
2022-08-09T14:08:31.514Z,100332.77
2022-08-09T14:11:01.225Z,100340.30
2022-08-09T14:14:23.470Z,100353.88
2022-08-09T14:16:22.475Z,100392.68
2022-08-09T14:18:59.428Z,100401.66
2022-08-09T14:21:29.113Z,100403.48
2022-08-09T14:24:01.192Z,100402.08
2022-08-09T14:26:34.193Z,100406.59
2022-08-09T14:29:08.319Z,100412.66
2022-08-09T14:31:55.068Z,100419.00
2022-08-09T14:34:27.392Z,100427.96
2022-08-09T14:37:07.185Z,100436.09
2022-08-09T14:39:45.165Z,100444.05
2022-08-09T14:42:30.502Z,100446.63
2022-08-09T14:46:39.990Z,100451.48
2022-08-09T14:47:58.539Z,100456.09
2022-08-09T14:50:33.069Z,100457.04
2022-08-09T14:53:06.285Z,100452.79
2022-08-09T14:55:42.084Z,100448.38
2022-08-09T14:58:11.286Z,100444.38
2022-08-09T15:00:42.295Z,100444.32
2022-08-09T15:03:11.017Z,100446.55
2022-08-09T15:05:40.111Z,100452.67
2022-08-09T15:08:19.065Z,100451.52
2022-08-09T15:11:01.805Z,100450.23
2022-08-09T15:13:48.182Z,100450.79
2022-08-09T15:16:23.390Z,100457.52
2022-08-09T15:18:59.788Z,100460.38
2022-08-09T15:22:00.827Z,100462.98
2022-08-09T15:24:24.162Z,100462.64
2022-08-09T15:26:55.349Z,100460.33
2022-08-09T15:30:48.627Z,100464.39
2022-08-09T15:32:28.644Z,100468.33
2022-08-09T15:35:40.272Z,100468.06
2022-08-09T15:38:10.896Z,100468.66
2022-08-09T15:40:43.777Z,100466.59
2022-08-09T15:43:13.602Z,100466.37
2022-08-09T15:46:07.260Z,100469.77
2022-08-09T15:48:32.009Z,100476.42
2022-08-09T15:51:01.430Z,100476.48
2022-08-09T15:54:03.416Z,100479.98
2022-08-09T15:56:29.453Z,100484.93
2022-08-09T15:58:59.635Z,100492.70
2022-08-09T16:01:31.339Z,100492.61
2022-08-09T16:04:03.742Z,100491.42
2022-08-09T16:06:37.354Z,100484.92
2022-08-09T16:09:06.587Z,100485.67
2022-08-09T16:11:35.026Z,100482.35
2022-08-09T16:14:07.949Z,100483.59
2022-08-09T16:16:38.080Z,100486.08
2022-08-09T16:19:10.668Z,100487.98
2022-08-09T16:21:51.730Z,100488.27
2022-08-09T16:24:33.797Z,100489.13
2022-08-09T16:27:05.178Z,100486.36
2022-08-09T16:29:36.997Z,100484.46
2022-08-09T16:32:19.480Z,100485.63
2022-08-09T16:34:58.105Z,100484.70
2022-08-09T16:37:56.165Z,100482.83
2022-08-09T16:40:29.906Z,100487.29
2022-08-09T16:43:05.310Z,100492.53
2022-08-09T16:45:33.712Z,100495.89
2022-08-09T16:48:41.195Z,100495.73
2022-08-09T16:50:59.550Z,100499.81
2022-08-09T16:53:36.999Z,100500.08
2022-08-09T16:56:09.914Z,100503.70
2022-08-09T16:58:42.698Z,100501.95
2022-08-09T17:01:23.775Z,100508.24
2022-08-09T17:03:54.460Z,100512.19
2022-08-09T17:06:28.916Z,100508.66
2022-08-09T17:09:43.620Z,100507.66
2022-08-09T17:11:52.570Z,100508.41
2022-08-09T17:14:28.044Z,100509.59
2022-08-09T17:17:01.087Z,100508.82
2022-08-09T17:19:47.572Z,100510.90
2022-08-09T17:22:25.087Z,100511.08
2022-08-09T17:25:03.088Z,100510.03
2022-08-09T17:27:33.976Z,100513.45
2022-08-09T17:30:06.685Z,100512.58
2022-08-09T17:32:45.420Z,100515.16
2022-08-09T17:35:14.889Z,100517.90
2022-08-09T17:38:12.864Z,100520.98
2022-08-09T17:40:36.309Z,100521.51
2022-08-09T17:43:32.095Z,100521.20
2022-08-09T17:46:05.870Z,100527.57
2022-08-09T17:48:38.439Z,100533.43
2022-08-09T17:51:19.135Z,100530.95
2022-08-09T17:53:52.790Z,100530.04
2022-08-09T17:56:29.089Z,100527.50
2022-08-09T17:59:09.057Z,100528.77
2022-08-09T18:02:07.936Z,100532.40
2022-08-09T18:04:29.252Z,100528.63
2022-08-09T18:06:59.372Z,100525.75
2022-08-09T18:09:39.987Z,100528.99
2022-08-09T18:12:17.974Z,100531.76
2022-08-09T18:14:54.686Z,100536.38
2022-08-09T18:17:27.362Z,100541.41
2022-08-09T18:21:01.871Z,100543.92
2022-08-09T18:23:05.318Z,100542.03
2022-08-09T18:25:51.182Z,100545.84
2022-08-09T18:30:40.623Z,100548.15
2022-08-09T18:31:12.505Z,100547.77
2022-08-09T18:33:40.802Z,100551.14
2022-08-09T18:36:14.126Z,100550.35
2022-08-09T18:38:57.503Z,100546.23
2022-08-09T18:41:29.362Z,100547.86
2022-08-09T18:44:12.803Z,100551.98
2022-08-09T18:46:47.207Z,100549.17
2022-08-09T18:49:21.071Z,100552.23
2022-08-09T18:51:55.086Z,100550.70
2022-08-09T18:54:28.627Z,100549.08
2022-08-09T18:57:06.085Z,100551.48
2022-08-09T18:59:51.514Z,100552.86
2022-08-09T19:02:23.918Z,100552.30
2022-08-09T19:05:04.258Z,100547.42
2022-08-09T19:08:03.721Z,100541.24
2022-08-09T19:10:36.948Z,100538.65
2022-08-09T19:13:22.831Z,100534.25
2022-08-09T19:15:58.714Z,100537.16
2022-08-09T19:18:33.429Z,100537.66
2022-08-09T19:21:09.384Z,100537.25
2022-08-09T19:24:32.753Z,100536.14
2022-08-09T19:26:31.566Z,100534.44
2022-08-09T19:29:03.116Z,100535.32
2022-08-09T19:31:44.035Z,100537.48
2022-08-09T19:34:21.621Z,100539.04
2022-08-09T19:36:55.626Z,100537.61
2022-08-09T19:39:42.946Z,100536.13
2022-08-09T19:42:15.356Z,100542.23
2022-08-09T19:44:49.347Z,100545.86
2022-08-09T19:47:23.356Z,100545.80
2022-08-09T19:50:05.108Z,100542.48
2022-08-09T19:52:51.641Z,100546.38
2022-08-09T19:55:25.772Z,100551.22
2022-08-09T19:57:59.654Z,100546.02
2022-08-09T20:00:27.897Z,100540.61
2022-08-09T20:04:27.953Z,100540.13
2022-08-09T20:05:46.549Z,100542.77
2022-08-09T20:08:33.382Z,100547.02
2022-08-09T20:11:04.796Z,100543.90
2022-08-09T20:13:36.805Z,100544.05
2022-08-09T20:16:34.845Z,100545.48
2022-08-09T20:19:42.534Z,100552.64
2022-08-09T20:21:57.085Z,100553.33
2022-08-09T20:24:32.121Z,100550.39
2022-08-09T20:27:08.560Z,100551.71
2022-08-09T20:29:39.053Z,100555.80
2022-08-09T20:32:30.750Z,100555.60
2022-08-09T20:34:59.021Z,100554.17
2022-08-09T20:37:37.962Z,100550.78
2022-08-09T20:40:18.996Z,100549.44
2022-08-09T20:42:59.431Z,100551.34
2022-08-09T20:46:01.200Z,100554.98
2022-08-09T20:48:21.398Z,100557.02
2022-08-09T20:50:55.735Z,100557.34
2022-08-09T20:53:36.220Z,100563.66
2022-08-09T20:56:17.335Z,100568.76
2022-08-09T20:58:54.552Z,100575.40
2022-08-09T21:01:35.310Z,100578.92
2022-08-09T21:05:53.708Z,100574.38
2022-08-09T21:07:12.254Z,100571.29
2022-08-09T21:09:55.295Z,100569.76
2022-08-09T21:15:27.425Z,100567.60
2022-08-09T21:18:23.812Z,100570.52
2022-08-09T21:20:54.558Z,100570.58
2022-08-09T21:23:36.068Z,100565.84
2022-08-09T21:26:15.664Z,100566.11
2022-08-09T21:28:51.792Z,100570.14
2022-08-09T21:31:24.633Z,100568.88
2022-08-09T21:34:12.755Z,100566.67
2022-08-09T21:36:45.810Z,100564.96
2022-08-09T21:39:28.155Z,100563.35
2022-08-09T21:42:11.107Z,100564.65
2022-08-09T21:44:43.595Z,100568.06
2022-08-09T21:47:17.349Z,100570.27
2022-08-09T21:49:48.088Z,100575.48
2022-08-09T21:52:20.331Z,100572.83
2022-08-09T21:55:02.852Z,100569.84
2022-08-09T21:57:59.046Z,100574.04
2022-08-09T22:00:32.633Z,100572.94
2022-08-09T22:03:05.932Z,100569.05
2022-08-09T22:05:42.169Z,100565.00
2022-08-09T22:08:14.621Z,100565.85
2022-08-09T22:11:49.532Z,100564.15
2022-08-09T22:13:35.607Z,100568.00
2022-08-09T22:16:08.835Z,100567.23
2022-08-09T22:18:53.101Z,100566.08
2022-08-09T22:21:27.523Z,100571.00
2022-08-09T22:24:16.605Z,100572.06
2022-08-09T22:26:51.333Z,100570.73
2022-08-09T22:29:28.461Z,100567.08
2022-08-09T22:32:00.774Z,100562.62
2022-08-09T22:34:29.099Z,100561.69
2022-08-09T22:36:58.407Z,100559.23
2022-08-09T22:39:56.283Z,100553.58
2022-08-09T22:42:22.296Z,100550.13
2022-08-09T22:48:04.718Z,100555.34
2022-08-09T22:48:11.234Z,100559.27
2022-08-09T22:50:32.408Z,100558.20
2022-08-09T22:53:03.222Z,100558.23
2022-08-09T22:56:06.532Z,100556.16
2022-08-09T22:58:32.262Z,100555.52
2022-08-09T23:01:05.973Z,100553.67
2022-08-09T23:04:03.513Z,100548.87
2022-08-09T23:06:32.796Z,100547.02
2022-08-09T23:09:07.378Z,100547.22
2022-08-09T23:11:35.614Z,100542.07
2022-08-09T23:14:10.086Z,100542.36
2022-08-09T23:16:45.830Z,100543.52
2022-08-09T23:19:13.883Z,100542.05
2022-08-09T23:21:42.178Z,100541.52
2022-08-09T23:24:10.927Z,100544.56
2022-08-09T23:26:39.757Z,100546.64
2022-08-09T23:29:14.123Z,100542.42
2022-08-09T23:31:42.299Z,100540.89
2022-08-09T23:34:10.418Z,100541.60
2022-08-09T23:36:38.654Z,100540.23
2022-08-09T23:39:08.136Z,100541.17
2022-08-09T23:41:36.327Z,100543.21
2022-08-09T23:44:04.842Z,100550.52
2022-08-09T23:46:33.127Z,100550.98
2022-08-09T23:49:01.613Z,100553.33
2022-08-09T23:51:30.294Z,100553.14
2022-08-09T23:54:02.126Z,100555.36
2022-08-09T23:56:39.528Z,100552.47
2022-08-09T23:59:22.165Z,100549.92
